createdAt,value
2022-09-07T00:02:37.040Z,17.90
2022-09-07T00:07:41.248Z,18.55
2022-09-07T00:12:45.210Z,19.92
2022-09-07T00:17:50.500Z,15.10
2022-09-07T00:22:54.485Z,14.10
2022-09-07T00:27:58.494Z,17.42
2022-09-07T00:33:03.873Z,15.52
2022-09-07T00:38:07.765Z,16.33
2022-09-07T00:43:17.379Z,17.08
2022-09-07T00:48:27.067Z,17.08
2022-09-07T00:53:34.504Z,14.10
2022-09-07T00:58:41.912Z,15.00
2022-09-07T01:03:55.037Z,13.80
2022-09-07T01:09:03.672Z,14.98
2022-09-07T01:14:10.709Z,17.52
2022-09-07T01:19:49.396Z,15.85
2022-09-07T01:25:04.321Z,18.45
2022-09-07T01:30:12.923Z,19.20
2022-09-07T01:35:38.755Z,18.98
2022-09-07T01:40:50.408Z,15.70
2022-09-07T01:45:58.404Z,13.55
2022-09-07T01:51:04.933Z,18.13
2022-09-07T01:56:14.401Z,18.40
2022-09-07T02:01:25.442Z,18.08
2022-09-07T02:06:38.024Z,17.98
2022-09-07T02:11:45.207Z,20.90
2022-09-07T02:16:57.430Z,20.42
2022-09-07T02:22:06.211Z,19.85
2022-09-07T02:27:15.236Z,23.88
2022-09-07T02:32:20.615Z,18.65
2022-09-07T02:37:28.726Z,19.48
2022-09-07T02:42:35.278Z,22.30
2022-09-07T02:47:53.655Z,21.20
2022-09-07T02:53:13.803Z,20.58
2022-09-07T02:58:27.913Z,21.95
2022-09-07T03:03:46.090Z,20.45
2022-09-07T03:08:54.608Z,22.35
2022-09-07T03:14:13.146Z,16.27
2022-09-07T03:19:18.900Z,19.52
2022-09-07T03:24:25.266Z,13.40
2022-09-07T03:29:29.413Z,21.13
2022-09-07T03:34:35.716Z,17.58
2022-09-07T03:39:39.554Z,22.70
2022-09-07T03:44:43.495Z,19.80
2022-09-07T03:49:49.147Z,18.40
2022-09-07T03:54:53.113Z,20.92
2022-09-07T03:59:57.017Z,30.02
2022-09-07T04:05:02.302Z,26.40
2022-09-07T04:10:06.682Z,23.80
2022-09-07T04:15:11.846Z,23.83
2022-09-07T04:20:19.899Z,24.20
2022-09-07T04:25:23.963Z,32.00
2022-09-07T04:30:28.137Z,24.80
2022-09-07T04:35:37.292Z,21.77
2022-09-07T04:40:41.460Z,22.17
2022-09-07T04:45:45.473Z,20.85
2022-09-07T04:50:52.181Z,20.90
2022-09-07T04:55:56.131Z,24.80
2022-09-07T05:01:03.088Z,24.13
2022-09-07T05:06:09.593Z,24.73
2022-09-07T05:11:15.063Z,25.55
2022-09-07T05:16:20.877Z,19.10
2022-09-07T05:21:28.393Z,19.90
2022-09-07T05:26:34.672Z,22.70
2022-09-07T05:36:43.731Z,23.98
2022-09-07T05:41:47.743Z,20.38
2022-09-07T05:46:52.690Z,24.05
2022-09-07T05:51:58.113Z,27.83
2022-09-07T05:57:05.388Z,17.55
2022-09-07T06:02:12.315Z,22.05
2022-09-07T06:07:21.981Z,20.75
2022-09-07T06:12:26.878Z,25.17
2022-09-07T06:17:31.636Z,25.75
2022-09-07T06:22:38.323Z,28.48
2022-09-07T06:27:42.278Z,28.45
2022-09-07T06:32:46.459Z,26.10
2022-09-07T06:37:51.816Z,28.88
2022-09-07T06:42:55.759Z,23.35
2022-09-07T06:47:59.720Z,23.92
2022-09-07T06:58:29.415Z,22.70
2022-09-07T07:03:33.745Z,18.30
2022-09-07T07:11:15.039Z,18.75
2022-09-07T07:56:45.617Z,21.23
2022-09-07T08:09:14.227Z,24.02
2022-09-07T08:14:58.204Z,22.33
2022-09-07T08:20:14.124Z,15.15
2022-09-07T08:25:19.369Z,15.05
2022-09-07T08:30:23.177Z,22.57
2022-09-07T08:35:28.592Z,16.25
2022-09-07T08:40:40.380Z,18.60
2022-09-07T08:45:47.498Z,18.15
2022-09-07T08:50:56.490Z,17.55
2022-09-07T08:56:05.605Z,23.50
2022-09-07T09:06:50.222Z,14.43
2022-09-07T09:12:14.022Z,14.15
2022-09-07T09:17:29.633Z,15.30
2022-09-07T09:22:53.802Z,21.85
2022-09-07T09:28:32.458Z,14.57
2022-09-07T09:33:34.894Z,19.08
2022-09-07T09:38:50.062Z,22.75
2022-09-07T09:43:57.350Z,21.25
2022-09-07T09:49:04.793Z,11.88
2022-09-07T09:54:26.043Z,17.02
2022-09-07T10:00:28.040Z,14.13
2022-09-07T10:13:14.065Z,15.60
2022-09-07T10:18:59.059Z,16.25
2022-09-07T10:24:29.147Z,18.40
2022-09-07T10:29:42.618Z,14.75
2022-09-07T10:34:58.512Z,15.38
2022-09-07T10:40:12.475Z,18.00
2022-09-07T10:45:21.612Z,15.95
2022-09-07T10:50:32.046Z,14.80
2022-09-07T10:55:41.352Z,14.60
2022-09-07T11:00:59.041Z,17.05
2022-09-07T11:06:15.258Z,10.40
2022-09-07T11:17:07.150Z,16.02
2022-09-07T11:22:21.241Z,11.90
2022-09-07T11:27:30.757Z,9.32
2022-09-07T11:32:38.682Z,10.98
2022-09-07T11:37:48.211Z,17.00
2022-09-07T11:42:55.913Z,8.85
2022-09-07T11:48:04.713Z,8.77
2022-09-07T11:53:16.615Z,7.95
2022-09-07T11:58:50.369Z,12.35
2022-09-07T12:04:15.369Z,7.65
2022-09-07T12:09:37.197Z,9.05
2022-09-07T12:14:56.521Z,13.30
2022-09-07T12:20:24.989Z,6.95
2022-09-07T12:25:51.825Z,7.40
2022-09-07T12:31:01.916Z,10.70
2022-09-07T12:36:39.620Z,12.40
2022-09-07T12:41:47.969Z,7.43
2022-09-07T12:47:03.310Z,6.03
2022-09-07T12:52:23.169Z,7.22
2022-09-07T12:58:43.793Z,10.43
2022-09-07T13:19:02.025Z,9.45
2022-09-07T13:24:47.150Z,9.40
2022-09-07T13:29:56.581Z,9.35
2022-09-07T13:35:19.355Z,7.53
2022-09-07T13:40:27.616Z,6.22
2022-09-07T13:45:45.655Z,7.82
2022-09-07T13:50:58.323Z,5.18
2022-09-07T13:56:15.578Z,8.48
2022-09-07T14:01:22.182Z,14.35
2022-09-07T14:06:33.637Z,8.63
2022-09-07T14:11:42.468Z,6.53
2022-09-07T14:16:49.607Z,9.25
2022-09-07T14:22:01.503Z,12.95
2022-09-07T14:27:07.947Z,8.88
2022-09-07T14:32:17.378Z,7.78
2022-09-07T14:37:24.036Z,6.90
2022-09-07T14:42:27.939Z,9.00
2022-09-07T14:47:34.882Z,11.00
2022-09-07T14:53:33.599Z,10.10
2022-09-07T14:58:11.907Z,17.38
2022-09-07T15:03:30.454Z,15.10
2022-09-07T15:08:41.332Z,7.97
2022-09-07T15:13:53.751Z,8.88
2022-09-07T15:19:02.456Z,10.73
2022-09-07T15:24:07.885Z,12.95
2022-09-07T15:29:13.003Z,22.58
2022-09-07T15:34:18.754Z,14.18
2022-09-07T15:39:25.713Z,12.30
2022-09-07T15:44:30.186Z,13.35
2022-09-07T15:49:34.453Z,7.82
2022-09-07T15:54:40.085Z,38.50
2022-09-07T15:59:44.419Z,11.60
2022-09-07T16:04:48.334Z,9.13
2022-09-07T16:09:53.795Z,17.00
2022-09-07T16:14:57.967Z,9.23
2022-09-07T16:20:02.545Z,7.33
2022-09-07T16:25:08.599Z,8.73
2022-09-07T16:30:13.497Z,11.52
2022-09-07T16:40:23.568Z,14.20
2022-09-07T16:51:00.279Z,16.00
2022-09-07T16:56:08.745Z,11.80
2022-09-07T17:01:14.860Z,13.60
2022-09-07T17:06:20.593Z,15.60
2022-09-07T17:11:27.441Z,24.50
2022-09-07T17:16:33.591Z,26.05
2022-09-07T17:21:41.118Z,21.52
2022-09-07T17:27:15.929Z,19.90
2022-09-07T17:37:28.946Z,20.67
2022-09-07T17:47:58.387Z,23.98
2022-09-07T17:53:02.425Z,24.00
2022-09-07T17:58:07.747Z,22.45
2022-09-07T18:03:12.926Z,26.45
2022-09-07T18:08:17.026Z,22.38
2022-09-07T18:13:33.588Z,25.35
2022-09-07T18:18:40.061Z,36.42
2022-09-07T18:23:44.193Z,24.75
2022-09-07T18:29:15.898Z,75.22
2022-09-07T18:34:15.843Z,40.80
2022-09-07T18:39:19.910Z,40.58
2022-09-07T18:49:50.859Z,35.03
2022-09-07T18:54:54.757Z,33.78
2022-09-07T19:00:00.061Z,34.38
2022-09-07T19:10:28.441Z,34.95
2022-09-07T19:15:37.949Z,29.23
2022-09-07T19:20:42.202Z,37.15
2022-09-07T19:25:46.049Z,39.88
2022-09-07T19:30:51.393Z,37.97
2022-09-07T19:35:55.407Z,31.17
2022-09-07T19:41:00.036Z,42.70
2022-09-07T19:46:05.449Z,36.47
2022-09-07T19:51:12.061Z,40.38
2022-09-07T19:56:17.345Z,36.63
2022-09-07T20:01:25.137Z,38.15
2022-09-07T20:06:29.338Z,42.03
2022-09-07T20:11:34.765Z,36.25
2022-09-07T20:16:41.771Z,39.47
2022-09-07T20:26:57.361Z,41.53
2022-09-07T20:32:01.754Z,39.33
2022-09-07T20:37:06.534Z,39.80
2022-09-07T20:42:11.865Z,41.47
2022-09-07T20:47:15.661Z,36.83
2022-09-07T20:52:19.493Z,36.03
2022-09-07T20:57:24.853Z,32.85
2022-09-07T21:02:28.804Z,41.45
2022-09-07T21:07:32.929Z,43.25
2022-09-07T21:12:38.259Z,42.45
2022-09-07T21:17:42.027Z,56.05
2022-09-07T21:22:45.785Z,46.40
2022-09-07T21:27:50.948Z,51.85
2022-09-07T21:32:54.923Z,45.28
2022-09-07T21:37:58.676Z,41.08
2022-09-07T21:43:03.691Z,41.28
2022-09-07T21:48:07.426Z,42.13
2022-09-07T21:53:12.742Z,47.60
2022-09-07T21:58:17.776Z,41.90
2022-09-07T22:03:22.361Z,44.17
2022-09-07T22:08:26.019Z,39.50
2022-09-07T22:13:31.130Z,41.58
2022-09-07T22:18:38.020Z,48.22
2022-09-07T22:23:45.518Z,48.72
2022-09-07T22:28:50.974Z,43.55
2022-09-07T22:33:56.807Z,47.03
2022-09-07T22:39:03.188Z,48.53
2022-09-07T22:44:12.094Z,50.10
2022-09-07T22:49:17.966Z,46.13
2022-09-07T22:54:21.740Z,47.47
2022-09-07T22:59:26.844Z,37.72
2022-09-07T23:04:31.912Z,44.35
2022-09-07T23:09:35.777Z,42.63
2022-09-07T23:14:40.780Z,39.03
2022-09-07T23:19:44.603Z,37.60
2022-09-07T23:24:48.612Z,39.30
2022-09-07T23:29:53.633Z,34.25
2022-09-07T23:34:57.345Z,34.83
2022-09-07T23:40:01.109Z,34.05
2022-09-07T23:45:08.256Z,35.25
2022-09-07T23:50:12.313Z,37.10
2022-09-07T23:55:16.159Z,37.53
